Archival Weather

Reid-Hillview of Santa Clara County

San Jose, California (KRHV)

Report from: Saturday, December 2, 2023 2:47 PM PST
Current time: Wednesday, April 24, 2024 11:54 AM PDT

Current weather – Weather history – Daily summaries
Weather forecast

Temperature16.0°C (60.8°F)
Dew point11.0°C (51.8°F)
Winds Calm
Visibility10 mi. (16.1 km)
Clouds Ceiling: Broken clouds 3,000 ft. (914 m)
Altimeter30.23 in.Hg (1024 mB)
Relative humidity72 %
Density altitude-49 ft. (-15 m)
Flight conditions Visual Meteorological Conditions
Raw dataKRHV 022247Z 00000KT 10SM BKN030 16/11 A3023
An error has occurred. This application may no longer respond until reloaded. Reload 🗙